Time;durP1;ratioP1;P1;durP2;ratioP2;P2;SDS_P1;SDS_P2;PMS_P1;PMS_P2;Temp;Humidity;BMP_temperature;BMP_pressure;BME280_temperature;BME280_humidity;BME280_pressure;Samples;Min_cycle;Max_cycle;Signal;HPM_P1;HPM_P2
2022/03/22 00:01:39;;;;;;;30.47;19.90;;;12.10;1.00;;;;;;4973603;28;20670;-54
2022/03/22 00:04:06;;;;;;;26.17;19.83;;;12.00;1.00;;;;;;4975715;28;20206;-52
2022/03/22 00:06:34;;;;;;;30.83;20.23;;;12.10;1.00;;;;;;4975637;28;20234;-53
2022/03/22 00:09:00;;;;;;;32.53;19.97;;;12.00;1.00;;;;;;4976008;28;20219;-54
2022/03/22 00:11:27;;;;;;;27.23;19.03;;;12.00;1.00;;;;;;4974206;28;20294;-53
2022/03/22 00:13:54;;;;;;;28.13;17.70;;;12.00;1.00;;;;;;4974931;28;20829;-54
2022/03/22 00:16:21;;;;;;;28.40;19.40;;;12.00;1.00;;;;;;4972385;28;20587;-54
2022/03/22 00:19:08;;;;;;;26.53;18.97;;;12.00;1.00;;;;;;4973986;28;20573;-54
2022/03/22 00:21:35;;;;;;;33.33;18.00;;;11.90;1.00;;;;;;4973214;28;20316;-53
2022/03/22 00:24:03;;;;;;;28.13;18.57;;;11.80;1.00;;;;;;4974261;28;20648;-52
2022/03/22 00:26:30;;;;;;;29.00;19.40;;;11.80;1.00;;;;;;4972477;28;20296;-54
2022/03/22 00:28:58;;;;;;;30.43;19.20;;;11.70;1.00;;;;;;4977387;28;20235;-53
2022/03/22 00:31:32;;;;;;;25.70;18.27;;;11.70;1.00;;;;;;4973696;28;20296;-54
2022/03/22 00:33:59;;;;;;;31.90;18.93;;;11.70;1.00;;;;;;4976417;28;20210;-53
2022/03/22 00:36:26;;;;;;;26.27;18.23;;;11.70;1.00;;;;;;4976091;28;20344;-53
2022/03/22 00:38:53;;;;;;;27.77;18.57;;;11.70;1.00;;;;;;4977972;28;20202;-53
2022/03/22 00:41:20;;;;;;;25.53;18.10;;;11.70;1.00;;;;;;4975195;28;20268;-52
2022/03/22 00:43:47;;;;;;;29.13;17.57;;;11.70;1.00;;;;;;4971576;28;20296;-53
2022/03/22 00:46:14;;;;;;;24.73;16.47;;;11.70;1.00;;;;;;4972702;28;20244;-53
2022/03/22 00:48:42;;;;;;;25.03;17.47;;;11.70;1.00;;;;;;4975604;28;20245;-54
2022/03/22 00:51:09;;;;;;;23.80;16.53;;;11.80;99.90;;;;;;4971053;28;20207;-53
2022/03/22 00:53:36;;;;;;;22.43;17.27;;;11.80;99.90;;;;;;4978813;28;20204;-53
2022/03/22 00:56:04;;;;;;;26.60;17.60;;;11.80;99.90;;;;;;4975505;28;20233;-54
2022/03/22 00:58:32;;;;;;;25.37;16.73;;;11.80;99.90;;;;;;4974822;28;20551;-53
2022/03/22 01:00:59;;;;;;;24.07;17.17;;;11.90;99.90;;;;;;4973294;28;20210;-55
2022/03/22 01:03:28;;;;;;;28.73;18.17;;;11.90;99.90;;;;;;4975351;28;20634;-53
2022/03/22 01:05:59;;;;;;;25.33;17.10;;;11.90;99.90;;;;;;4972183;28;20327;-53
2022/03/22 01:08:28;;;;;;;28.80;18.97;;;11.90;99.90;;;;;;4974325;28;20216;-54
2022/03/22 01:10:56;;;;;;;25.90;17.20;;;11.80;99.90;;;;;;4973448;28;20613;-54
2022/03/22 01:13:27;;;;;;;30.63;17.90;;;11.80;99.90;;;;;;4974365;28;20495;-53
2022/03/22 01:15:54;;;;;;;27.43;17.13;;;11.80;99.90;;;;;;4979295;28;20214;-51
2022/03/22 01:18:23;;;;;;;27.03;19.33;;;11.80;99.90;;;;;;4974312;28;20209;-52
2022/03/22 01:20:50;;;;;;;27.73;18.90;;;11.80;99.90;;;;;;4971454;28;20212;-53
2022/03/22 01:23:22;;;;;;;29.30;18.43;;;11.70;1.00;;;;;;4973583;28;20355;-53
2022/03/22 01:25:49;;;;;;;27.57;18.43;;;11.70;99.90;;;;;;4972265;28;20242;-54
2022/03/22 01:28:16;;;;;;;30.83;18.30;;;11.80;99.90;;;;;;4974175;28;20244;-54
2022/03/22 01:30:44;;;;;;;25.67;17.87;;;11.80;99.90;;;;;;4972056;28;20207;-53
2022/03/22 01:33:15;;;;;;;24.13;17.37;;;11.80;99.90;;;;;;4975090;28;20276;-52
2022/03/22 01:35:42;;;;;;;25.47;18.23;;;11.80;99.90;;;;;;4973741;28;20731;-52
2022/03/22 01:38:09;;;;;;;29.23;18.93;;;11.80;99.90;;;;;;4977767;28;20213;-52
2022/03/22 01:40:37;;;;;;;30.13;18.20;;;11.80;99.90;;;;;;4978322;28;20272;-53
2022/03/22 01:43:05;;;;;;;28.90;16.60;;;11.80;99.90;;;;;;4974083;28;20301;-52
2022/03/22 01:45:32;;;;;;;25.67;18.07;;;11.80;99.90;;;;;;4974619;28;20296;-53
2022/03/22 01:48:02;;;;;;;24.60;17.30;;;11.70;1.00;;;;;;4975143;28;20209;-53
2022/03/22 01:50:29;;;;;;;25.10;18.30;;;11.50;1.00;;;;;;4976516;28;20201;-53
2022/03/22 01:52:58;;;;;;;28.97;17.83;;;11.50;1.00;;;;;;4972184;28;20210;-53
2022/03/22 01:55:25;;;;;;;27.07;17.50;;;11.50;1.00;;;;;;4972791;28;20262;-52
2022/03/22 01:57:52;;;;;;;29.03;18.30;;;11.50;1.00;;;;;;4974884;28;20292;-53
2022/03/22 02:00:20;;;;;;;28.03;18.47;;;11.30;1.00;;;;;;4971125;28;20312;-52
2022/03/22 02:05:52;;;;;;;25.20;17.40;;;11.40;1.00;;;;;;4971701;28;20869;-54
2022/03/22 02:08:24;;;;;;;29.27;19.27;;;11.20;1.00;;;;;;4976833;28;20594;-52
2022/03/22 02:10:52;;;;;;;30.83;18.87;;;11.30;1.00;;;;;;4975514;28;20971;-54
2022/03/22 02:13:19;;;;;;;26.70;19.10;;;11.30;1.00;;;;;;4975795;28;20206;-52
2022/03/22 02:15:50;;;;;;;29.00;18.73;;;11.40;1.00;;;;;;4974590;28;20597;-54
2022/03/22 02:18:18;;;;;;;28.73;18.63;;;11.30;1.00;;;;;;4974862;28;20607;-53
2022/03/22 02:20:46;;;;;;;27.30;18.37;;;11.20;1.00;;;;;;4972476;28;20203;-54
2022/03/22 02:23:14;;;;;;;28.27;20.07;;;11.20;1.00;;;;;;4976496;28;20259;-53
2022/03/22 02:25:41;;;;;;;27.03;18.27;;;11.20;1.00;;;;;;4975684;28;20213;-52
2022/03/22 02:28:10;;;;;;;31.17;19.60;;;11.20;1.00;;;;;;4971059;28;20201;-52
2022/03/22 02:30:37;;;;;;;25.57;18.53;;;11.10;99.40;;;;;;4970721;28;20205;-52
2022/03/22 02:33:05;;;;;;;24.07;17.63;;;11.10;1.00;;;;;;4974523;28;20206;-50
2022/03/22 02:35:32;;;;;;;27.53;18.10;;;11.10;1.00;;;;;;4972831;28;20300;-49
2022/03/22 02:37:59;;;;;;;31.97;17.90;;;11.20;1.00;;;;;;4974402;28;20262;-53
2022/03/22 02:40:27;;;;;;;24.63;17.53;;;11.20;1.00;;;;;;4972280;28;20425;-52
2022/03/22 02:42:54;;;;;;;27.87;17.53;;;11.20;1.00;;;;;;4975350;28;20297;-50
2022/03/22 02:45:23;;;;;;;23.87;16.60;;;11.00;70.80;;;;;;4972334;28;20297;-54
2022/03/22 02:47:50;;;;;;;27.47;18.37;;;11.10;1.00;;;;;;4974437;28;20233;-52
2022/03/22 02:50:17;;;;;;;25.73;16.57;;;11.10;1.00;;;;;;4969890;28;20285;-54
2022/03/22 02:52:47;;;;;;;23.63;17.60;;;11.10;1.00;;;;;;4973245;28;20600;-52
2022/03/22 02:55:15;;;;;;;24.97;16.90;;;11.10;1.00;;;;;;4976603;28;20255;-53
2022/03/22 02:57:43;;;;;;;24.80;16.47;;;11.10;1.00;;;;;;4979374;28;20975;-52
2022/03/22 03:00:12;;;;;;;24.17;17.13;;;11.00;1.00;;;;;;4972949;28;20337;-54
2022/03/22 03:02:44;;;;;;;24.27;17.77;;;11.00;1.00;;;;;;4978549;28;20296;-54
2022/03/22 03:05:11;;;;;;;25.07;16.57;;;11.00;1.00;;;;;;4976320;28;20217;-53
2022/03/22 03:07:38;;;;;;;29.57;18.97;;;10.90;1.00;;;;;;4976180;28;20754;-53
2022/03/22 03:10:06;;;;;;;26.63;17.60;;;10.90;99.90;;;;;;4975323;28;20205;-53
2022/03/22 03:12:34;;;;;;;23.37;16.30;;;10.80;99.90;;;;;;4977906;28;20289;-53
2022/03/22 03:15:02;;;;;;;25.07;17.53;;;10.80;99.90;;;;;;4973422;28;20244;-53
2022/03/22 03:17:29;;;;;;;24.47;16.20;;;10.70;1.00;;;;;;4974839;28;20316;-51
2022/03/22 03:19:56;;;;;;;24.53;16.57;;;10.80;99.90;;;;;;4978052;28;20245;-51
2022/03/22 03:22:23;;;;;;;24.27;16.70;;;10.70;99.90;;;;;;4976297;28;20210;-52
2022/03/22 03:24:51;;;;;;;25.50;16.83;;;10.60;99.90;;;;;;4976641;28;20272;-54
2022/03/22 03:27:17;;;;;;;25.00;15.93;;;10.60;1.00;;;;;;4974123;28;20820;-53
2022/03/22 03:29:44;;;;;;;26.30;18.00;;;10.70;99.90;;;;;;4977454;28;20750;-54
2022/03/22 03:32:11;;;;;;;26.43;18.07;;;10.60;99.90;;;;;;4976637;28;20287;-53
2022/03/22 03:34:38;;;;;;;24.13;16.50;;;10.50;1.00;;;;;;4976973;28;20247;-53
2022/03/22 03:37:06;;;;;;;24.73;16.97;;;10.50;1.00;;;;;;4977540;28;20255;-51
2022/03/22 03:39:33;;;;;;;25.90;16.50;;;10.40;1.00;;;;;;4976787;28;20236;-54
2022/03/22 03:42:02;;;;;;;23.07;16.33;;;10.40;1.00;;;;;;4977726;28;20665;-54
2022/03/22 03:47:17;;;;;;;22.77;16.93;;;10.30;99.90;;;;;;4975915;28;20664;-53
2022/03/22 03:49:53;;;;;;;25.87;16.70;;;10.30;99.90;;;;;;4974369;28;20212;-54
2022/03/22 03:52:23;;;;;;;23.47;16.60;;;10.20;99.90;;;;;;4978019;28;20239;-51
2022/03/22 03:54:52;;;;;;;25.83;16.83;;;10.30;99.90;;;;;;4977247;28;20253;-53
2022/03/22 03:57:21;;;;;;;25.33;16.73;;;10.30;1.00;;;;;;4975902;28;20220;-52
2022/03/22 03:59:48;;;;;;;30.60;16.30;;;10.30;99.90;;;;;;4973997;28;20793;-52
2022/03/22 04:02:16;;;;;;;24.23;17.90;;;10.10;99.90;;;;;;4974563;28;20303;-54
2022/03/22 04:04:47;;;;;;;25.80;16.63;;;10.10;99.90;;;;;;4974396;28;20284;-53
2022/03/22 04:07:16;;;;;;;23.73;16.87;;;10.10;1.00;;;;;;4978521;28;20617;-52
2022/03/22 04:09:43;;;;;;;24.33;16.10;;;10.10;99.90;;;;;;4974396;28;20208;-54
2022/03/22 04:12:11;;;;;;;24.83;16.60;;;10.10;1.00;;;;;;4978662;28;20294;-52
2022/03/22 04:14:39;;;;;;;24.40;16.40;;;10.10;1.00;;;;;;4980394;28;20531;-53
2022/03/22 04:17:08;;;;;;;25.23;17.10;;;10.10;1.00;;;;;;4980545;28;20319;-54
2022/03/22 04:19:36;;;;;;;25.63;16.40;;;10.00;99.90;;;;;;4976047;28;20262;-53
2022/03/22 04:22:05;;;;;;;25.13;15.00;;;10.00;1.00;;;;;;4975821;28;20319;-52
2022/03/22 04:24:31;;;;;;;25.17;16.00;;;10.00;1.00;;;;;;4976847;28;20303;-54
2022/03/22 04:32:41;;;;;;;26.10;15.47;;;10.00;1.00;;;;;;4977389;28;20297;-52
2022/03/22 04:32:43;;;;;;;23.30;15.53;;;10.00;1.00;;;;;;4975656;28;20297;-53
2022/03/22 04:35:19;;;;;;;25.73;16.77;;;9.90;1.00;;;;;;4975594;28;20899;-53
2022/03/22 04:37:50;;;;;;;21.43;15.43;;;10.00;1.00;;;;;;4977322;28;20795;-51
2022/03/22 04:40:17;;;;;;;24.83;14.97;;;10.00;1.00;;;;;;4975706;28;20334;-52
2022/03/22 04:42:47;;;;;;;23.33;15.07;;;9.90;99.90;;;;;;4972085;28;20261;-51
2022/03/22 04:45:14;;;;;;;23.23;16.10;;;9.70;1.00;;;;;;4976439;28;20679;-50
2022/03/22 04:47:45;;;;;;;23.40;15.77;;;9.80;1.00;;;;;;4975775;28;20302;-51
2022/03/22 04:50:14;;;;;;;30.00;15.80;;;9.90;1.00;;;;;;4973977;28;20239;-51
2022/03/22 04:58:12;;;;;;;24.10;17.20;;;9.90;1.00;;;;;;4974019;28;20306;-53
2022/03/22 05:00:39;;;;;;;22.43;15.30;;;9.80;1.00;;;;;;4987998;28;20335;-52
2022/03/22 05:03:09;;;;;;;24.43;14.70;;;9.80;1.00;;;;;;4973804;28;20258;-52
2022/03/22 05:08:22;;;;;;;22.07;15.03;;;9.70;1.00;;;;;;4972263;28;20330;-53
2022/03/22 05:10:48;;;;;;;20.13;13.93;;;9.70;1.00;;;;;;4972679;28;20347;-56
2022/03/22 05:13:20;;;;;;;22.60;14.30;;;9.70;1.00;;;;;;4975732;28;20225;-54
2022/03/22 05:15:47;;;;;;;25.17;14.77;;;9.70;1.00;;;;;;4974660;28;20512;-54
2022/03/22 05:18:15;;;;;;;22.73;15.07;;;9.80;1.00;;;;;;4974908;28;20220;-52
2022/03/22 05:20:42;;;;;;;23.63;15.77;;;9.70;1.00;;;;;;4972922;28;21522;-53
2022/03/22 05:23:09;;;;;;;22.40;15.07;;;9.70;99.90;;;;;;4975817;28;20197;-52
2022/03/22 05:25:36;;;;;;;23.50;15.83;;;9.70;99.90;;;;;;4974366;28;20579;-52
2022/03/22 05:28:03;;;;;;;21.67;14.73;;;9.60;1.00;;;;;;4974565;28;20323;-53
2022/03/22 05:30:31;;;;;;;23.80;15.13;;;9.50;1.00;;;;;;4972098;28;20211;-51
2022/03/22 05:32:58;;;;;;;21.93;15.23;;;9.40;99.90;;;;;;4974074;28;20337;-54
2022/03/22 05:35:25;;;;;;;23.23;14.67;;;9.40;99.90;;;;;;4973302;28;20292;-52
2022/03/22 05:37:52;;;;;;;27.80;15.77;;;9.40;1.00;;;;;;4976855;28;20683;-52
2022/03/22 05:40:19;;;;;;;24.03;15.17;;;9.40;1.00;;;;;;4974061;28;20305;-53
2022/03/22 05:42:47;;;;;;;20.43;15.17;;;9.40;1.00;;;;;;4973115;28;20636;-55
2022/03/22 05:45:15;;;;;;;19.47;14.60;;;9.50;99.90;;;;;;4973008;28;20407;-52
2022/03/22 05:47:42;;;;;;;26.00;14.97;;;9.40;1.00;;;;;;4974255;28;20691;-53
2022/03/22 05:50:10;;;;;;;20.67;14.07;;;9.40;1.00;;;;;;4973170;28;20261;-52
2022/03/22 05:52:44;;;;;;;21.23;14.87;;;9.40;70.00;;;;;;4973239;28;20609;-56
2022/03/22 05:55:12;;;;;;;22.90;15.80;;;9.40;99.90;;;;;;4975418;28;20302;-53
2022/03/22 05:57:40;;;;;;;24.37;14.57;;;9.50;1.00;;;;;;4975745;28;20227;-53
2022/03/22 06:00:09;;;;;;;21.33;14.33;;;9.50;1.00;;;;;;4970432;28;20280;-56
2022/03/22 06:02:37;;;;;;;25.23;14.73;;;9.50;1.00;;;;;;4973850;28;20285;-52
2022/03/22 06:05:09;;;;;;;22.63;14.97;;;9.50;1.00;;;;;;4972271;28;20239;-53
2022/03/22 06:07:36;;;;;;;22.10;15.23;;;9.50;1.00;;;;;;4974958;28;20290;-53
2022/03/22 06:10:05;;;;;;;23.83;15.27;;;9.60;1.00;;;;;;4975055;28;20303;-54
2022/03/22 06:12:51;;;;;;;24.10;14.83;;;9.60;1.00;;;;;;4973692;28;20229;-53
2022/03/22 06:15:21;;;;;;;27.20;15.23;;;9.50;1.00;;;;;;4972107;28;20738;-55
2022/03/22 06:17:56;;;;;;;22.23;15.87;;;9.50;99.90;;;;;;4972647;28;20323;-53
2022/03/22 06:20:34;;;;;;;24.53;15.77;;;9.50;1.00;;;;;;4974308;28;20582;-50
2022/03/22 06:23:06;;;;;;;19.10;14.67;;;9.50;1.00;;;;;;5002775;28;20202;-52
2022/03/22 06:25:34;;;;;;;23.60;15.60;;;9.60;1.00;;;;;;4975752;28;20207;-52
2022/03/22 06:28:03;;;;;;;21.77;14.67;;;9.70;99.90;;;;;;4972864;28;20235;-52
2022/03/22 06:30:30;;;;;;;20.60;15.50;;;9.70;1.00;;;;;;4979005;28;20232;-51
2022/03/22 06:33:00;;;;;;;27.13;15.90;;;9.70;1.00;;;;;;4977985;28;20249;-53
2022/03/22 06:35:29;;;;;;;24.20;15.93;;;9.70;1.00;;;;;;4974320;28;20217;-53
2022/03/22 06:37:57;;;;;;;23.33;15.43;;;9.70;99.90;;;;;;4977352;28;20314;-55
2022/03/22 06:40:28;;;;;;;21.40;14.80;;;9.80;1.00;;;;;;4975984;28;20756;-52
2022/03/22 06:42:59;;;;;;;20.10;15.20;;;9.80;1.00;;;;;;4974755;28;20291;-54
2022/03/22 06:45:26;;;;;;;22.07;15.20;;;9.90;1.00;;;;;;4973094;28;20262;-53
2022/03/22 06:47:54;;;;;;;23.43;16.27;;;9.80;99.90;;;;;;4976245;28;20607;-54
2022/03/22 06:50:21;;;;;;;23.00;16.00;;;10.00;99.90;;;;;;4973888;28;20425;-52
2022/03/22 06:52:48;;;;;;;25.43;15.50;;;10.10;99.90;;;;;;4973886;28;20290;-53
2022/03/22 06:55:16;;;;;;;22.73;15.20;;;10.20;99.90;;;;;;4972307;28;20597;-54
2022/03/22 06:57:43;;;;;;;21.47;14.80;;;10.30;1.00;;;;;;4975563;28;20710;-53
2022/03/22 07:00:13;;;;;;;24.97;15.57;;;10.30;1.00;;;;;;4962072;28;20240;-54
2022/03/22 07:02:41;;;;;;;21.80;15.27;;;10.30;1.00;;;;;;4971335;28;20680;-51
2022/03/22 07:05:09;;;;;;;21.67;14.60;;;10.40;1.00;;;;;;4969379;28;20687;-54
2022/03/22 07:07:37;;;;;;;24.40;15.43;;;10.50;1.00;;;;;;4979002;28;20231;-52
2022/03/22 07:10:06;;;;;;;27.40;16.80;;;10.60;1.00;;;;;;4976936;28;20674;-52
2022/03/22 07:12:33;;;;;;;24.60;16.20;;;10.80;99.90;;;;;;4976590;28;20231;-51
2022/03/22 07:15:03;;;;;;;24.87;15.80;;;10.90;99.90;;;;;;4976518;28;20212;-51
2022/03/22 07:17:30;;;;;;;23.03;15.83;;;11.00;1.00;;;;;;4973868;28;20320;-53
2022/03/22 07:19:57;;;;;;;21.80;15.50;;;11.20;1.00;;;;;;4977431;28;20255;-52
2022/03/22 07:22:25;;;;;;;21.87;15.77;;;11.20;1.00;;;;;;4975472;28;20269;-51
2022/03/22 07:24:53;;;;;;;23.30;16.17;;;11.30;1.00;;;;;;4977433;28;20636;-55
2022/03/22 07:27:20;;;;;;;23.90;15.43;;;11.50;1.00;;;;;;4979018;28;20249;-51
2022/03/22 07:29:46;;;;;;;23.00;16.40;;;11.50;99.90;;;;;;4973822;28;20553;-52
2022/03/22 07:32:13;;;;;;;23.70;16.20;;;11.50;99.90;;;;;;4973816;28;22122;-53
2022/03/22 07:34:40;;;;;;;27.13;17.00;;;11.60;99.90;;;;;;4976572;28;20664;-54
2022/03/22 07:37:07;;;;;;;23.20;15.30;;;11.70;31.30;;;;;;4974281;28;20642;-52
2022/03/22 07:39:35;;;;;;;24.40;16.00;;;11.90;46.70;;;;;;4977534;28;20206;-53
2022/03/22 07:42:02;;;;;;;22.40;16.83;;;11.90;1.00;;;;;;4975067;28;20205;-51
2022/03/22 07:44:31;;;;;;;24.93;15.53;;;12.00;1.00;;;;;;4979214;28;20201;-51
2022/03/22 07:46:59;;;;;;;24.93;16.47;;;12.20;1.00;;;;;;4973718;28;20216;-53
2022/03/22 07:55:02;;;;;;;23.47;16.30;;;12.50;1.00;;;;;;4978639;28;20295;-52
2022/03/22 07:57:29;;;;;;;24.33;15.93;;;12.60;1.00;;;;;;4978423;28;20326;-53
2022/03/22 07:59:55;;;;;;;20.07;16.17;;;12.70;1.00;;;;;;4974892;28;20277;-53
2022/03/22 08:02:22;;;;;;;24.27;16.13;;;12.90;1.00;;;;;;4974117;28;20237;-52
2022/03/22 08:04:49;;;;;;;29.73;16.97;;;13.20;99.90;;;;;;4970767;28;21034;-53
2022/03/22 08:07:16;;;;;;;22.67;15.93;;;13.30;99.90;;;;;;4976257;28;20242;-53
2022/03/22 08:09:45;;;;;;;23.10;15.40;;;13.20;99.90;;;;;;4978538;28;20214;-53
2022/03/22 08:12:12;;;;;;;21.40;15.93;;;13.50;56.30;;;;;;4977657;28;20207;-52
2022/03/22 08:14:39;;;;;;;23.20;16.20;;;13.40;45.30;;;;;;4976800;28;20207;-52
2022/03/22 08:17:06;;;;;;;21.07;16.93;;;13.50;99.90;;;;;;4978837;28;20267;-53
2022/03/22 08:19:33;;;;;;;25.33;16.87;;;13.70;1.00;;;;;;4975105;28;20371;-52
2022/03/22 08:22:00;;;;;;;23.20;15.87;;;13.60;1.00;;;;;;4974989;28;20318;-53
2022/03/22 08:24:26;;;;;;;27.27;15.67;;;13.60;1.00;;;;;;4974314;28;20287;-54
2022/03/22 08:26:54;;;;;;;24.13;17.77;;;13.80;1.00;;;;;;4975530;28;20227;-54
2022/03/22 08:29:20;;;;;;;20.40;16.40;;;13.90;1.00;;;;;;4975994;28;20294;-53
2022/03/22 08:31:47;;;;;;;26.00;16.17;;;14.10;1.00;;;;;;4973230;28;20330;-53
2022/03/22 08:34:14;;;;;;;24.50;15.77;;;14.30;1.00;;;;;;4972217;28;20606;-53
2022/03/22 08:36:41;;;;;;;22.70;16.50;;;14.40;1.00;;;;;;4974661;28;20262;-52
2022/03/22 08:39:08;;;;;;;31.30;17.43;;;14.60;1.00;;;;;;4976830;28;20245;-53
2022/03/22 08:41:35;;;;;;;24.33;17.00;;;14.80;1.00;;;;;;4972756;28;20273;-54
2022/03/22 08:44:02;;;;;;;20.53;16.53;;;15.00;99.90;;;;;;4975649;28;21101;-53
2022/03/22 08:46:30;;;;;;;21.80;16.33;;;15.10;99.90;;;;;;4976499;28;20212;-54
2022/03/22 08:48:56;;;;;;;29.13;18.13;;;15.40;99.90;;;;;;4978269;28;20210;-52
2022/03/22 08:51:26;;;;;;;25.33;16.83;;;15.20;99.90;;;;;;4976741;28;20224;-49
2022/03/22 08:53:54;;;;;;;26.03;17.77;;;15.70;99.90;;;;;;4976499;28;20205;-52
2022/03/22 08:56:24;;;;;;;26.23;17.17;;;15.90;85.30;;;;;;4971979;28;20643;-54
2022/03/22 08:58:54;;;;;;;22.70;16.60;;;15.90;78.50;;;;;;4990224;28;20238;-54
2022/03/22 09:01:24;;;;;;;21.97;17.30;;;16.60;1.00;;;;;;4973228;28;20211;-53
2022/03/22 09:06:07;;;;;;;23.47;16.83;;;16.80;1.00;;;;;;4976785;28;20209;-51
2022/03/22 09:06:38;;;;;;;21.53;16.30;;;17.20;1.00;;;;;;4976735;28;20741;-51
2022/03/22 09:09:06;;;;;;;26.70;16.50;;;17.50;1.00;;;;;;4976396;28;20263;-52
2022/03/22 09:11:38;;;;;;;25.73;17.17;;;17.20;1.00;;;;;;4975816;28;20658;-52
2022/03/22 09:14:05;;;;;;;25.47;17.50;;;17.40;1.00;;;;;;4977756;28;20235;-54
2022/03/22 09:16:32;;;;;;;21.27;16.10;;;17.70;1.00;;;;;;4977737;28;21808;-53
2022/03/22 09:18:59;;;;;;;24.10;16.97;;;17.80;1.00;;;;;;4976153;28;20224;-53
2022/03/22 09:21:27;;;;;;;22.77;16.20;;;18.00;1.00;;;;;;4977638;28;20248;-53
2022/03/22 09:23:54;;;;;;;23.90;17.87;;;18.10;99.90;;;;;;4978259;28;20210;-53
2022/03/22 09:26:21;;;;;;;22.87;16.60;;;17.80;1.00;;;;;;4978636;28;20241;-54
2022/03/22 09:28:52;;;;;;;22.27;16.43;;;18.20;99.90;;;;;;4977077;28;20243;-53
2022/03/22 09:31:22;;;;;;;21.03;16.47;;;18.40;99.90;;;;;;4975728;28;20291;-55
2022/03/22 09:33:53;;;;;;;25.03;16.47;;;18.40;99.90;;;;;;4977237;28;20217;-53
2022/03/22 09:36:20;;;;;;;23.00;17.43;;;18.00;1.00;;;;;;4979094;28;20738;-52
2022/03/22 09:38:48;;;;;;;23.77;17.60;;;18.00;99.90;;;;;;4975415;28;20279;-53
2022/03/22 09:41:16;;;;;;;24.93;17.77;;;18.40;1.00;;;;;;4977957;28;20309;-54
2022/03/22 09:43:48;;;;;;;25.13;17.30;;;18.60;99.90;;;;;;4993056;28;20229;-54
2022/03/22 09:46:19;;;;;;;25.83;17.77;;;18.70;99.90;;;;;;4978159;28;20607;-53
2022/03/22 09:48:48;;;;;;;23.77;17.50;;;18.70;99.90;;;;;;4975009;28;20211;-52
2022/03/22 09:54:03;;;;;;;24.57;16.43;;;19.00;99.90;;;;;;4973217;28;20208;-51
2022/03/22 09:56:30;;;;;;;25.33;18.30;;;18.80;99.90;;;;;;4977630;28;20609;-52
2022/03/22 09:59:03;;;;;;;25.73;17.47;;;18.60;99.90;;;;;;4975301;28;20580;-53
2022/03/22 10:01:31;;;;;;;25.23;18.30;;;18.70;99.90;;;;;;4978514;28;20208;-54
2022/03/22 10:04:05;;;;;;;23.07;17.23;;;18.80;99.90;;;;;;4976958;28;20209;-53
2022/03/22 10:06:33;;;;;;;22.73;17.03;;;18.80;99.90;;;;;;4977372;28;20241;-53
2022/03/22 10:09:02;;;;;;;23.33;17.23;;;18.90;99.90;;;;;;4979069;28;20207;-53
2022/03/22 10:11:40;;;;;;;22.37;17.10;;;19.20;99.90;;;;;;4978045;28;20332;-54
2022/03/22 10:14:08;;;;;;;24.57;17.07;;;19.00;94.90;;;;;;4977698;28;20209;-52
2022/03/22 10:16:48;;;;;;;24.03;17.87;;;18.90;99.90;;;;;;4977848;28;20935;-52
2022/03/22 10:19:26;;;;;;;23.90;17.77;;;18.90;99.90;;;;;;4975120;28;20218;-52
2022/03/22 10:21:53;;;;;;;28.07;18.90;;;19.10;99.90;;;;;;4976517;28;20204;-53
2022/03/22 10:24:20;;;;;;;27.40;19.07;;;18.70;99.90;;;;;;4977990;28;20236;-52
2022/03/22 10:26:47;;;;;;;23.83;17.73;;;19.00;99.90;;;;;;4977776;28;20273;-52
2022/03/22 10:29:15;;;;;;;25.60;18.50;;;19.30;99.90;;;;;;4977285;28;20281;-53
2022/03/22 10:31:45;;;;;;;25.80;17.00;;;19.40;99.90;;;;;;4977617;28;20305;-53
2022/03/22 10:34:13;;;;;;;24.73;18.03;;;19.50;99.90;;;;;;4978260;28;20217;-53
2022/03/22 10:36:41;;;;;;;29.67;17.80;;;19.40;95.00;;;;;;4978880;28;20205;-53
2022/03/22 10:39:10;;;;;;;26.57;18.37;;;19.70;1.00;;;;;;4979182;28;20217;-53
2022/03/22 10:41:40;;;;;;;27.47;18.47;;;19.60;1.00;;;;;;4975886;28;20280;-53
2022/03/22 10:44:16;;;;;;;24.67;18.83;;;19.60;29.30;;;;;;4978853;28;20203;-52
2022/03/22 10:46:45;;;;;;;31.03;19.97;;;19.50;6.20;;;;;;4978904;28;20653;-52
2022/03/22 10:49:14;;;;;;;26.70;19.33;;;19.50;60.90;;;;;;4979043;28;20300;-53
2022/03/22 10:51:46;;;;;;;29.37;21.00;;;19.50;14.60;;;;;;4979013;28;20286;-53
2022/03/22 10:54:17;;;;;;;28.80;21.23;;;19.90;50.20;;;;;;4977701;28;20236;-54
2022/03/22 10:56:48;;;;;;;29.73;20.93;;;19.70;27.30;;;;;;4978510;28;20712;-58
2022/03/22 10:59:17;;;;;;;30.67;20.67;;;20.00;92.80;;;;;;4975974;28;20327;-52
2022/03/22 11:01:46;;;;;;;29.27;20.90;;;20.10;1.00;;;;;;4972906;28;20293;-54
2022/03/22 11:04:15;;;;;;;27.87;20.20;;;20.30;1.00;;;;;;4976782;28;20283;-53
2022/03/22 11:06:43;;;;;;;27.93;19.03;;;20.40;1.00;;;;;;4977875;28;20716;-53
2022/03/22 11:09:16;;;;;;;25.47;19.80;;;20.50;1.00;;;;;;4978943;28;21172;-52
2022/03/22 11:11:44;;;;;;;29.37;18.43;;;20.60;1.00;;;;;;4978754;28;20649;-53
2022/03/22 11:14:16;;;;;;;27.77;19.57;;;20.70;1.00;;;;;;4977952;28;20685;-52
2022/03/22 11:16:47;;;;;;;20.03;14.23;;;20.90;1.00;;;;;;4980526;28;20210;-51
2022/03/22 11:19:20;;;;;;;23.80;16.77;;;21.00;1.00;;;;;;4981182;28;20697;-58
2022/03/22 11:21:47;;;;;;;18.87;14.23;;;20.90;1.00;;;;;;4978000;28;20214;-54
2022/03/22 11:24:23;;;;;;;23.10;15.30;;;20.60;1.00;;;;;;4978982;28;20218;-53
2022/03/22 11:26:53;;;;;;;18.03;14.37;;;20.50;1.00;;;;;;4974578;28;20229;-53
2022/03/22 11:29:24;;;;;;;24.73;14.67;;;20.90;1.00;;;;;;4978853;28;20233;-50
2022/03/22 11:34:39;;;;;;;22.73;15.80;;;21.20;1.00;;;;;;4979790;28;20675;-54
2022/03/22 11:37:08;;;;;;;23.17;15.47;;;21.40;1.00;;;;;;4975077;28;20267;-52
2022/03/22 11:42:22;;;;;;;24.03;16.13;;;21.60;1.00;;;;;;4976433;28;20234;-53
2022/03/22 11:45:02;;;;;;;23.37;16.27;;;21.70;1.00;;;;;;4979749;28;20202;-52
2022/03/22 11:47:43;;;;;;;22.37;16.30;;;21.80;1.00;;;;;;4978992;28;20724;-52
2022/03/22 11:50:16;;;;;;;18.83;15.00;;;21.90;1.00;;;;;;4979208;28;20703;-52
2022/03/22 11:52:44;;;;;;;22.27;15.97;;;21.80;1.00;;;;;;4982390;28;20206;-53
2022/03/22 11:55:25;;;;;;;22.17;17.17;;;22.30;1.00;;;;;;4981484;28;20740;-54
2022/03/22 11:58:12;;;;;;;23.60;15.63;;;22.70;1.00;;;;;;4979715;28;20279;-53
2022/03/22 12:00:45;;;;;;;23.63;15.57;;;22.60;1.00;;;;;;4977689;28;20280;-55
2022/03/22 12:03:16;;;;;;;19.80;15.20;;;22.40;1.00;;;;;;4979071;28;20278;-53
2022/03/22 12:05:43;;;;;;;23.00;16.57;;;22.70;1.00;;;;;;4980093;28;20288;-53
2022/03/22 12:08:14;;;;;;;22.17;14.63;;;22.70;1.00;;;;;;4980345;28;20968;-53
2022/03/22 12:10:52;;;;;;;26.17;15.63;;;22.70;1.00;;;;;;4982074;28;20234;-53
2022/03/22 12:13:20;;;;;;;25.17;17.17;;;22.60;1.00;;;;;;4980930;28;20210;-53
2022/03/22 12:15:56;;;;;;;24.93;16.93;;;22.90;1.00;;;;;;4985913;28;20677;-53
2022/03/22 12:18:28;;;;;;;26.00;18.17;;;23.10;1.00;;;;;;4977579;28;20219;-53
2022/03/22 12:20:58;;;;;;;24.83;17.87;;;22.80;1.00;;;;;;4977951;28;20260;-54
2022/03/22 12:23:26;;;;;;;24.47;17.10;;;22.70;1.00;;;;;;4979659;28;20619;-53
2022/03/22 12:25:53;;;;;;;25.93;16.57;;;23.00;1.00;;;;;;4980685;28;20234;-54
2022/03/22 12:28:20;;;;;;;25.47;17.20;;;23.10;1.00;;;;;;4977675;28;20654;-55
2022/03/22 12:30:47;;;;;;;26.57;18.17;;;23.10;1.00;;;;;;4979712;28;20246;-53
2022/03/22 12:33:21;;;;;;;24.97;17.90;;;23.00;1.00;;;;;;4978573;28;20197;-53
2022/03/22 12:35:50;;;;;;;24.13;16.70;;;22.90;1.00;;;;;;4979154;28;20433;-53
2022/03/22 12:38:17;;;;;;;28.13;19.23;;;22.80;1.00;;;;;;4980466;28;20255;-53
2022/03/22 12:40:44;;;;;;;24.87;17.53;;;22.70;1.00;;;;;;4978721;28;20298;-52
2022/03/22 12:43:19;;;;;;;25.97;17.33;;;22.60;1.00;;;;;;4979732;28;20665;-54
2022/03/22 12:45:48;;;;;;;21.43;16.20;;;22.30;1.00;;;;;;4980147;28;20285;-54
2022/03/22 12:48:20;;;;;;;22.57;16.63;;;22.40;1.00;;;;;;4979211;28;20207;-52
2022/03/22 12:50:49;;;;;;;26.97;17.63;;;22.80;1.00;;;;;;4975074;28;20568;-53
2022/03/22 12:53:16;;;;;;;27.73;15.77;;;22.50;1.00;;;;;;4972499;28;20209;-53
2022/03/22 12:55:43;;;;;;;21.83;15.17;;;22.30;1.00;;;;;;4972412;28;20229;-52
2022/03/22 12:58:10;;;;;;;24.10;15.63;;;22.70;1.00;;;;;;4977638;28;20309;-54
2022/03/22 13:00:39;;;;;;;21.93;15.07;;;22.80;1.00;;;;;;4977245;28;20297;-52
2022/03/22 13:03:16;;;;;;;19.70;14.70;;;22.70;1.00;;;;;;4977490;28;20203;-53
2022/03/22 13:05:47;;;;;;;20.13;14.27;;;22.60;1.00;;;;;;4973864;28;20205;-54
2022/03/22 13:08:20;;;;;;;23.50;14.67;;;22.70;1.00;;;;;;4978889;28;20706;-52
2022/03/22 13:16:23;;;;;;;25.17;15.63;;;23.50;1.00;;;;;;4977325;28;20198;-53
2022/03/22 13:18:52;;;;;;;23.33;14.43;;;23.40;1.00;;;;;;4974353;28;20218;-54
2022/03/22 13:21:30;;;;;;;20.30;14.77;;;23.40;1.00;;;;;;4971136;28;20513;-52